sensor_id;sensor_type;location;lat;lon;timestamp;P1;P2;P0
76679;PMS5003;65597;51.520;-0.224;2023-02-21T00:00:51;32;26;
76679;PMS5003;65597;51.520;-0.224;2023-02-21T00:03:17;26;24;
76679;PMS5003;65597;51.520;-0.224;2023-02-21T00:05:43;32;29;
76679;PMS5003;65597;51.520;-0.224;2023-02-21T00:08:08;28;27;
76679;PMS5003;65597;51.520;-0.224;2023-02-21T00:10:34;30;27;
76679;PMS5003;65597;51.520;-0.224;2023-02-21T00:12:59;26;24;
76679;PMS5003;65597;51.520;-0.224;2023-02-21T00:15:24;26;25;
76679;PMS5003;65597;51.520;-0.224;2023-02-21T00:17:50;25;23;
76679;PMS5003;65597;51.520;-0.224;2023-02-21T00:20:15;24;22;
76679;PMS5003;65597;51.520;-0.224;2023-02-21T00:22:41;24;22;
76679;PMS5003;65597;51.520;-0.224;2023-02-21T00:25:06;24;22;
76679;PMS5003;65597;51.520;-0.224;2023-02-21T00:27:32;24;24;
76679;PMS5003;65597;51.520;-0.224;2023-02-21T00:29:57;29;25;
76679;PMS5003;65597;51.520;-0.224;2023-02-21T00:32:22;20;20;
76679;PMS5003;65597;51.520;-0.224;2023-02-21T00:34:48;23;21;
76679;PMS5003;65597;51.520;-0.224;2023-02-21T00:37:14;23;22;
76679;PMS5003;65597;51.520;-0.224;2023-02-21T00:39:39;21;19;
76679;PMS5003;65597;51.520;-0.224;2023-02-21T00:42:05;26;21;
76679;PMS5003;65597;51.520;-0.224;2023-02-21T00:44:30;21;20;
76679;PMS5003;65597;51.520;-0.224;2023-02-21T00:46:57;22;17;
76679;PMS5003;65597;51.520;-0.224;2023-02-21T00:49:21;18;17;
76679;PMS5003;65597;51.520;-0.224;2023-02-21T00:51:47;20;19;
76679;PMS5003;65597;51.520;-0.224;2023-02-21T00:54:12;18;18;
76679;PMS5003;65597;51.520;-0.224;2023-02-21T00:56:38;17;17;
76679;PMS5003;65597;51.520;-0.224;2023-02-21T00:59:04;22;22;
76679;PMS5003;65597;51.520;-0.224;2023-02-21T01:01:28;21;19;
76679;PMS5003;65597;51.520;-0.224;2023-02-21T01:03:53;15;15;
76679;PMS5003;65597;51.520;-0.224;2023-02-21T01:06:19;16;14;
76679;PMS5003;65597;51.520;-0.224;2023-02-21T01:08:44;12;11;
76679;PMS5003;65597;51.520;-0.224;2023-02-21T01:11:13;11;10;
76679;PMS5003;65597;51.520;-0.224;2023-02-21T01:13:35;8;8;
76679;PMS5003;65597;51.520;-0.224;2023-02-21T01:16:00;14;14;
76679;PMS5003;65597;51.520;-0.224;2023-02-21T01:18:26;10;9;
76679;PMS5003;65597;51.520;-0.224;2023-02-21T01:20:51;8;8;
76679;PMS5003;65597;51.520;-0.224;2023-02-21T01:23:18;9;9;
76679;PMS5003;65597;51.520;-0.224;2023-02-21T01:25:42;7;7;
76679;PMS5003;65597;51.520;-0.224;2023-02-21T01:28:08;10;9;
76679;PMS5003;65597;51.520;-0.224;2023-02-21T01:30:33;11;11;
76679;PMS5003;65597;51.520;-0.224;2023-02-21T01:32:58;8;8;
76679;PMS5003;65597;51.520;-0.224;2023-02-21T01:35:24;10;10;
76679;PMS5003;65597;51.520;-0.224;2023-02-21T01:37:49;10;9;
76679;PMS5003;65597;51.520;-0.224;2023-02-21T01:40:15;9;9;
76679;PMS5003;65597;51.520;-0.224;2023-02-21T01:42:40;9;9;
76679;PMS5003;65597;51.520;-0.224;2023-02-21T01:47:32;9;9;
76679;PMS5003;65597;51.520;-0.224;2023-02-21T01:49:57;11;11;
76679;PMS5003;65597;51.520;-0.224;2023-02-21T01:52:22;9;9;
76679;PMS5003;65597;51.520;-0.224;2023-02-21T01:54:48;10;10;
76679;PMS5003;65597;51.520;-0.224;2023-02-21T01:57:13;10;10;
76679;PMS5003;65597;51.520;-0.224;2023-02-21T01:59:40;9;9;
76679;PMS5003;65597;51.520;-0.224;2023-02-21T02:02:05;16;11;
76679;PMS5003;65597;51.520;-0.224;2023-02-21T02:04:30;10;9;
76679;PMS5003;65597;51.520;-0.224;2023-02-21T02:06:55;9;8;
76679;PMS5003;65597;51.520;-0.224;2023-02-21T02:09:21;10;10;
76679;PMS5003;65597;51.520;-0.224;2023-02-21T02:11:55;11;11;
76679;PMS5003;65597;51.520;-0.224;2023-02-21T02:14:16;12;12;
76679;PMS5003;65597;51.520;-0.224;2023-02-21T02:16:38;12;11;
76679;PMS5003;65597;51.520;-0.224;2023-02-21T02:19:09;13;12;
76679;PMS5003;65597;51.520;-0.224;2023-02-21T02:26:32;10;10;
76679;PMS5003;65597;51.520;-0.224;2023-02-21T02:28:48;12;11;
76679;PMS5003;65597;51.520;-0.224;2023-02-21T02:31:17;9;9;
76679;PMS5003;65597;51.520;-0.224;2023-02-21T02:33:43;10;9;
76679;PMS5003;65597;51.520;-0.224;2023-02-21T02:36:02;9;9;
76679;PMS5003;65597;51.520;-0.224;2023-02-21T02:38:28;10;10;
76679;PMS5003;65597;51.520;-0.224;2023-02-21T02:40:56;7;7;
76679;PMS5003;65597;51.520;-0.224;2023-02-21T02:43:19;9;7;
76679;PMS5003;65597;51.520;-0.224;2023-02-21T02:45:44;10;10;
76679;PMS5003;65597;51.520;-0.224;2023-02-21T02:48:09;9;9;
76679;PMS5003;65597;51.520;-0.224;2023-02-21T02:50:34;7;7;
76679;PMS5003;65597;51.520;-0.224;2023-02-21T02:53:00;9;9;
76679;PMS5003;65597;51.520;-0.224;2023-02-21T02:55:29;8;7;
76679;PMS5003;65597;51.520;-0.224;2023-02-21T02:57:50;11;11;
76679;PMS5003;65597;51.520;-0.224;2023-02-21T03:00:17;10;9;
76679;PMS5003;65597;51.520;-0.224;2023-02-21T03:02:46;10;9;
76679;PMS5003;65597;51.520;-0.224;2023-02-21T03:05:13;9;9;
76679;PMS5003;65597;51.520;-0.224;2023-02-21T03:07:34;9;9;
76679;PMS5003;65597;51.520;-0.224;2023-02-21T03:10:01;11;11;
76679;PMS5003;65597;51.520;-0.224;2023-02-21T03:12:27;10;10;
76679;PMS5003;65597;51.520;-0.224;2023-02-21T03:14:50;8;8;
76679;PMS5003;65597;51.520;-0.224;2023-02-21T03:17:14;8;8;
76679;PMS5003;65597;51.520;-0.224;2023-02-21T03:19:40;11;11;
76679;PMS5003;65597;51.520;-0.224;2023-02-21T03:22:06;9;9;
76679;PMS5003;65597;51.520;-0.224;2023-02-21T03:24:32;10;10;
76679;PMS5003;65597;51.520;-0.224;2023-02-21T03:26:56;12;11;
76679;PMS5003;65597;51.520;-0.224;2023-02-21T03:29:21;10;10;
76679;PMS5003;65597;51.520;-0.224;2023-02-21T03:31:48;15;13;
76679;PMS5003;65597;51.520;-0.224;2023-02-21T03:34:12;11;11;
76679;PMS5003;65597;51.520;-0.224;2023-02-21T03:36:39;10;10;
76679;PMS5003;65597;51.520;-0.224;2023-02-21T03:39:03;11;9;
76679;PMS5003;65597;51.520;-0.224;2023-02-21T03:41:29;8;8;
76679;PMS5003;65597;51.520;-0.224;2023-02-21T03:43:54;12;11;
76679;PMS5003;65597;51.520;-0.224;2023-02-21T03:46:20;11;9;
76679;PMS5003;65597;51.520;-0.224;2023-02-21T03:48:46;10;10;
76679;PMS5003;65597;51.520;-0.224;2023-02-21T03:51:10;9;9;
76679;PMS5003;65597;51.520;-0.224;2023-02-21T03:53:36;10;10;
76679;PMS5003;65597;51.520;-0.224;2023-02-21T03:56:01;10;10;
76679;PMS5003;65597;51.520;-0.224;2023-02-21T03:58:27;10;10;
76679;PMS5003;65597;51.520;-0.224;2023-02-21T04:00:52;10;10;
76679;PMS5003;65597;51.520;-0.224;2023-02-21T04:03:18;7;7;
76679;PMS5003;65597;51.520;-0.224;2023-02-21T04:05:43;10;9;
76679;PMS5003;65597;51.520;-0.224;2023-02-21T04:08:09;7;7;
76679;PMS5003;65597;51.520;-0.224;2023-02-21T04:10:34;8;8;
76679;PMS5003;65597;51.520;-0.224;2023-02-21T04:13:00;8;8;
76679;PMS5003;65597;51.520;-0.224;2023-02-21T04:15:25;7;7;
76679;PMS5003;65597;51.520;-0.224;2023-02-21T04:17:51;7;7;
76679;PMS5003;65597;51.520;-0.224;2023-02-21T04:20:16;8;8;
76679;PMS5003;65597;51.520;-0.224;2023-02-21T04:22:42;8;8;
76679;PMS5003;65597;51.520;-0.224;2023-02-21T04:25:07;11;11;
76679;PMS5003;65597;51.520;-0.224;2023-02-21T04:27:33;10;9;
76679;PMS5003;65597;51.520;-0.224;2023-02-21T04:29:58;9;8;
76679;PMS5003;65597;51.520;-0.224;2023-02-21T04:32:24;10;10;
76679;PMS5003;65597;51.520;-0.224;2023-02-21T04:34:49;13;9;
76679;PMS5003;65597;51.520;-0.224;2023-02-21T04:37:16;8;8;
76679;PMS5003;65597;51.520;-0.224;2023-02-21T04:39:40;12;11;
76679;PMS5003;65597;51.520;-0.224;2023-02-21T04:42:05;13;12;
76679;PMS5003;65597;51.520;-0.224;2023-02-21T04:44:31;10;9;
76679;PMS5003;65597;51.520;-0.224;2023-02-21T04:46:56;10;10;
76679;PMS5003;65597;51.520;-0.224;2023-02-21T04:49:23;9;9;
76679;PMS5003;65597;51.520;-0.224;2023-02-21T04:51:48;17;13;
76679;PMS5003;65597;51.520;-0.224;2023-02-21T04:54:13;15;12;
76679;PMS5003;65597;51.520;-0.224;2023-02-21T04:56:38;11;11;
76679;PMS5003;65597;51.520;-0.224;2023-02-21T04:59:04;11;10;
76679;PMS5003;65597;51.520;-0.224;2023-02-21T05:01:30;11;10;
76679;PMS5003;65597;51.520;-0.224;2023-02-21T05:03:55;12;12;
76679;PMS5003;65597;51.520;-0.224;2023-02-21T05:06:21;13;11;
76679;PMS5003;65597;51.520;-0.224;2023-02-21T05:08:45;10;9;
76679;PMS5003;65597;51.520;-0.224;2023-02-21T05:11:11;11;10;
76679;PMS5003;65597;51.520;-0.224;2023-02-21T05:13:37;10;10;
76679;PMS5003;65597;51.520;-0.224;2023-02-21T05:16:02;13;13;
76679;PMS5003;65597;51.520;-0.224;2023-02-21T05:18:27;10;10;
76679;PMS5003;65597;51.520;-0.224;2023-02-21T05:20:52;9;9;
76679;PMS5003;65597;51.520;-0.224;2023-02-21T05:23:18;8;8;
76679;PMS5003;65597;51.520;-0.224;2023-02-21T05:25:44;9;9;
76679;PMS5003;65597;51.520;-0.224;2023-02-21T05:28:09;9;8;
76679;PMS5003;65597;51.520;-0.224;2023-02-21T05:30:34;8;8;
76679;PMS5003;65597;51.520;-0.224;2023-02-21T05:33:00;8;8;
76679;PMS5003;65597;51.520;-0.224;2023-02-21T05:35:25;11;10;
76679;PMS5003;65597;51.520;-0.224;2023-02-21T05:37:51;8;8;
76679;PMS5003;65597;51.520;-0.224;2023-02-21T05:40:16;12;12;
76679;PMS5003;65597;51.520;-0.224;2023-02-21T05:42:42;11;11;
76679;PMS5003;65597;51.520;-0.224;2023-02-21T05:45:08;7;7;
76679;PMS5003;65597;51.520;-0.224;2023-02-21T05:47:32;9;8;
76679;PMS5003;65597;51.520;-0.224;2023-02-21T05:49:58;7;7;
76679;PMS5003;65597;51.520;-0.224;2023-02-21T05:52:23;9;9;
76679;PMS5003;65597;51.520;-0.224;2023-02-21T05:54:49;9;9;
76679;PMS5003;65597;51.520;-0.224;2023-02-21T05:57:14;8;8;
76679;PMS5003;65597;51.520;-0.224;2023-02-21T05:59:40;5;5;
76679;PMS5003;65597;51.520;-0.224;2023-02-21T06:02:05;8;8;
76679;PMS5003;65597;51.520;-0.224;2023-02-21T06:04:31;7;7;
76679;PMS5003;65597;51.520;-0.224;2023-02-21T06:06:56;9;9;
76679;PMS5003;65597;51.520;-0.224;2023-02-21T06:09:21;10;10;
76679;PMS5003;65597;51.520;-0.224;2023-02-21T06:11:47;9;9;
76679;PMS5003;65597;51.520;-0.224;2023-02-21T06:14:13;9;9;
76679;PMS5003;65597;51.520;-0.224;2023-02-21T06:16:37;10;9;
76679;PMS5003;65597;51.520;-0.224;2023-02-21T06:19:03;8;7;
76679;PMS5003;65597;51.520;-0.224;2023-02-21T06:21:28;10;10;
76679;PMS5003;65597;51.520;-0.224;2023-02-21T06:23:53;7;7;
76679;PMS5003;65597;51.520;-0.224;2023-02-21T06:26:19;9;8;
76679;PMS5003;65597;51.520;-0.224;2023-02-21T06:28:44;11;9;
76679;PMS5003;65597;51.520;-0.224;2023-02-21T06:31:10;10;9;
76679;PMS5003;65597;51.520;-0.224;2023-02-21T06:33:35;9;9;
76679;PMS5003;65597;51.520;-0.224;2023-02-21T06:36:02;13;11;
76679;PMS5003;65597;51.520;-0.224;2023-02-21T06:38:26;10;9;
76679;PMS5003;65597;51.520;-0.224;2023-02-21T06:40:51;8;8;
76679;PMS5003;65597;51.520;-0.224;2023-02-21T06:43:16;8;8;
76679;PMS5003;65597;51.520;-0.224;2023-02-21T06:45:42;8;8;
76679;PMS5003;65597;51.520;-0.224;2023-02-21T06:48:07;11;8;
76679;PMS5003;65597;51.520;-0.224;2023-02-21T06:50:34;13;13;
76679;PMS5003;65597;51.520;-0.224;2023-02-21T06:52:58;11;10;
76679;PMS5003;65597;51.520;-0.224;2023-02-21T06:55:24;13;10;
76679;PMS5003;65597;51.520;-0.224;2023-02-21T06:57:49;11;9;
76679;PMS5003;65597;51.520;-0.224;2023-02-21T07:00:15;15;13;
76679;PMS5003;65597;51.520;-0.224;2023-02-21T07:02:40;10;9;
76679;PMS5003;65597;51.520;-0.224;2023-02-21T07:05:06;7;7;
76679;PMS5003;65597;51.520;-0.224;2023-02-21T07:07:31;12;10;
76679;PMS5003;65597;51.520;-0.224;2023-02-21T07:09:56;11;10;
76679;PMS5003;65597;51.520;-0.224;2023-02-21T07:12:21;7;6;
76679;PMS5003;65597;51.520;-0.224;2023-02-21T07:14:48;8;8;
76679;PMS5003;65597;51.520;-0.224;2023-02-21T07:17:12;9;9;
76679;PMS5003;65597;51.520;-0.224;2023-02-21T07:19:38;7;7;
76679;PMS5003;65597;51.520;-0.224;2023-02-21T07:22:04;10;10;
76679;PMS5003;65597;51.520;-0.224;2023-02-21T07:24:29;9;9;
76679;PMS5003;65597;51.520;-0.224;2023-02-21T07:26:55;11;11;
76679;PMS5003;65597;51.520;-0.224;2023-02-21T07:29:20;8;8;
76679;PMS5003;65597;51.520;-0.224;2023-02-21T07:31:45;10;9;
76679;PMS5003;65597;51.520;-0.224;2023-02-21T07:34:11;8;8;
76679;PMS5003;65597;51.520;-0.224;2023-02-21T07:36:36;10;9;
76679;PMS5003;65597;51.520;-0.224;2023-02-21T07:39:04;11;11;
76679;PMS5003;65597;51.520;-0.224;2023-02-21T07:41:27;11;11;
76679;PMS5003;65597;51.520;-0.224;2023-02-21T07:43:52;10;10;
76679;PMS5003;65597;51.520;-0.224;2023-02-21T07:46:18;9;9;
76679;PMS5003;65597;51.520;-0.224;2023-02-21T07:48:43;10;10;
76679;PMS5003;65597;51.520;-0.224;2023-02-21T07:51:10;7;7;
76679;PMS5003;65597;51.520;-0.224;2023-02-21T07:53:34;11;11;
76679;PMS5003;65597;51.520;-0.224;2023-02-21T07:55:59;10;10;
76679;PMS5003;65597;51.520;-0.224;2023-02-21T07:58:24;11;10;
76679;PMS5003;65597;51.520;-0.224;2023-02-21T08:00:50;9;8;
76679;PMS5003;65597;51.520;-0.224;2023-02-21T08:03:17;14;13;
76679;PMS5003;65597;51.520;-0.224;2023-02-21T08:05:40;11;11;
76679;PMS5003;65597;51.520;-0.224;2023-02-21T08:08:06;8;8;
76679;PMS5003;65597;51.520;-0.224;2023-02-21T08:10:32;18;14;
76679;PMS5003;65597;51.520;-0.224;2023-02-21T08:12:57;11;10;
76679;PMS5003;65597;51.520;-0.224;2023-02-21T08:15:25;11;11;
76679;PMS5003;65597;51.520;-0.224;2023-02-21T08:17:48;13;12;
76679;PMS5003;65597;51.520;-0.224;2023-02-21T08:20:13;17;14;
76679;PMS5003;65597;51.520;-0.224;2023-02-21T08:22:38;12;12;
76679;PMS5003;65597;51.520;-0.224;2023-02-21T08:25:05;13;10;
76679;PMS5003;65597;51.520;-0.224;2023-02-21T08:27:32;10;10;
76679;PMS5003;65597;51.520;-0.224;2023-02-21T08:29:56;15;13;
76679;PMS5003;65597;51.520;-0.224;2023-02-21T08:32:21;14;11;
76679;PMS5003;65597;51.520;-0.224;2023-02-21T08:34:47;12;11;
76679;PMS5003;65597;51.520;-0.224;2023-02-21T08:37:12;13;13;
76679;PMS5003;65597;51.520;-0.224;2023-02-21T08:39:37;15;13;
76679;PMS5003;65597;51.520;-0.224;2023-02-21T08:42:03;17;16;
76679;PMS5003;65597;51.520;-0.224;2023-02-21T08:44:28;14;14;
76679;PMS5003;65597;51.520;-0.224;2023-02-21T08:46:53;11;11;
76679;PMS5003;65597;51.520;-0.224;2023-02-21T08:49:19;14;14;
76679;PMS5003;65597;51.520;-0.224;2023-02-21T08:51:45;12;12;
76679;PMS5003;65597;51.520;-0.224;2023-02-21T08:54:09;10;10;
76679;PMS5003;65597;51.520;-0.224;2023-02-21T08:56:34;19;14;
76679;PMS5003;65597;51.520;-0.224;2023-02-21T08:59:00;14;12;
76679;PMS5003;65597;51.520;-0.224;2023-02-21T09:01:29;14;14;
76679;PMS5003;65597;51.520;-0.224;2023-02-21T09:03:51;18;18;
76679;PMS5003;65597;51.520;-0.224;2023-02-21T09:06:16;16;15;
76679;PMS5003;65597;51.520;-0.224;2023-02-21T09:08:42;15;15;
76679;PMS5003;65597;51.520;-0.224;2023-02-21T09:11:08;15;14;
76679;PMS5003;65597;51.520;-0.224;2023-02-21T09:13:33;15;15;
76679;PMS5003;65597;51.520;-0.224;2023-02-21T09:15:59;18;15;
76679;PMS5003;65597;51.520;-0.224;2023-02-21T09:18:25;13;13;
76679;PMS5003;65597;51.520;-0.224;2023-02-21T09:20:51;14;11;
76679;PMS5003;65597;51.520;-0.224;2023-02-21T09:23:15;15;11;
76679;PMS5003;65597;51.520;-0.224;2023-02-21T09:25:40;13;12;
76679;PMS5003;65597;51.520;-0.224;2023-02-21T09:28:05;13;12;
76679;PMS5003;65597;51.520;-0.224;2023-02-21T09:30:31;9;9;
76679;PMS5003;65597;51.520;-0.224;2023-02-21T09:32:56;9;8;
76679;PMS5003;65597;51.520;-0.224;2023-02-21T09:35:22;13;12;
76679;PMS5003;65597;51.520;-0.224;2023-02-21T09:37:47;17;13;
76679;PMS5003;65597;51.520;-0.224;2023-02-21T09:40:15;10;8;
76679;PMS5003;65597;51.520;-0.224;2023-02-21T09:42:38;11;11;
76679;PMS5003;65597;51.520;-0.224;2023-02-21T09:45:04;9;9;
76679;PMS5003;65597;51.520;-0.224;2023-02-21T09:47:29;12;11;
76679;PMS5003;65597;51.520;-0.224;2023-02-21T09:49:56;10;10;
76679;PMS5003;65597;51.520;-0.224;2023-02-21T09:52:21;11;11;
76679;PMS5003;65597;51.520;-0.224;2023-02-21T09:54:46;12;11;
76679;PMS5003;65597;51.520;-0.224;2023-02-21T09:57:12;12;12;
76679;PMS5003;65597;51.520;-0.224;2023-02-21T09:59:36;11;10;
76679;PMS5003;65597;51.520;-0.224;2023-02-21T10:02:06;10;10;
76679;PMS5003;65597;51.520;-0.224;2023-02-21T10:04:31;11;11;
76679;PMS5003;65597;51.520;-0.224;2023-02-21T10:06:53;10;9;
76679;PMS5003;65597;51.520;-0.224;2023-02-21T10:09:20;9;9;
76679;PMS5003;65597;51.520;-0.224;2023-02-21T10:11:45;11;11;
76679;PMS5003;65597;51.520;-0.224;2023-02-21T10:14:12;12;11;
76679;PMS5003;65597;51.520;-0.224;2023-02-21T10:16:36;12;11;
76679;PMS5003;65597;51.520;-0.224;2023-02-21T10:19:02;8;8;
76679;PMS5003;65597;51.520;-0.224;2023-02-21T10:21:27;10;9;
76679;PMS5003;65597;51.520;-0.224;2023-02-21T10:23:51;9;8;
76679;PMS5003;65597;51.520;-0.224;2023-02-21T10:26:17;15;12;
76679;PMS5003;65597;51.520;-0.224;2023-02-21T10:28:43;14;11;
76679;PMS5003;65597;51.520;-0.224;2023-02-21T10:31:09;12;11;
76679;PMS5003;65597;51.520;-0.224;2023-02-21T10:33:35;10;9;
76679;PMS5003;65597;51.520;-0.224;2023-02-21T10:35:58;11;11;
76679;PMS5003;65597;51.520;-0.224;2023-02-21T10:38:24;11;10;
76679;PMS5003;65597;51.520;-0.224;2023-02-21T10:40:50;16;15;
76679;PMS5003;65597;51.520;-0.224;2023-02-21T10:43:15;10;10;
76679;PMS5003;65597;51.520;-0.224;2023-02-21T10:45:39;10;10;
76679;PMS5003;65597;51.520;-0.224;2023-02-21T10:48:05;18;14;
76679;PMS5003;65597;51.520;-0.224;2023-02-21T10:50:37;12;12;
76679;PMS5003;65597;51.520;-0.224;2023-02-21T10:52:56;13;13;
76679;PMS5003;65597;51.520;-0.224;2023-02-21T10:55:21;16;13;
76679;PMS5003;65597;51.520;-0.224;2023-02-21T10:57:48;15;12;
76679;PMS5003;65597;51.520;-0.224;2023-02-21T11:02:37;11;11;
76679;PMS5003;65597;51.520;-0.224;2023-02-21T11:05:07;12;12;
76679;PMS5003;65597;51.520;-0.224;2023-02-21T11:07:27;18;15;
76679;PMS5003;65597;51.520;-0.224;2023-02-21T11:09:52;13;11;
76679;PMS5003;65597;51.520;-0.224;2023-02-21T11:12:20;16;16;
76679;PMS5003;65597;51.520;-0.224;2023-02-21T11:14:44;16;14;
76679;PMS5003;65597;51.520;-0.224;2023-02-21T11:17:11;13;12;
76679;PMS5003;65597;51.520;-0.224;2023-02-21T11:19:41;14;13;
76679;PMS5003;65597;51.520;-0.224;2023-02-21T11:22:00;16;15;
76679;PMS5003;65597;51.520;-0.224;2023-02-21T11:24:25;15;15;
76679;PMS5003;65597;51.520;-0.224;2023-02-21T11:26:50;14;14;
76679;PMS5003;65597;51.520;-0.224;2023-02-21T11:29:17;16;16;
76679;PMS5003;65597;51.520;-0.224;2023-02-21T11:31:40;22;20;
76679;PMS5003;65597;51.520;-0.224;2023-02-21T11:34:07;18;15;
76679;PMS5003;65597;51.520;-0.224;2023-02-21T11:36:33;16;15;
76679;PMS5003;65597;51.520;-0.224;2023-02-21T11:39:00;20;19;
76679;PMS5003;65597;51.520;-0.224;2023-02-21T11:41:26;16;15;
76679;PMS5003;65597;51.520;-0.224;2023-02-21T11:43:49;16;15;
76679;PMS5003;65597;51.520;-0.224;2023-02-21T11:46:16;15;15;
76679;PMS5003;65597;51.520;-0.224;2023-02-21T11:48:41;21;17;
76679;PMS5003;65597;51.520;-0.224;2023-02-21T11:51:05;18;16;
76679;PMS5003;65597;51.520;-0.224;2023-02-21T11:53:33;14;13;
76679;PMS5003;65597;51.520;-0.224;2023-02-21T11:55:56;14;14;
76679;PMS5003;65597;51.520;-0.224;2023-02-21T11:58:21;16;16;
76679;PMS5003;65597;51.520;-0.224;2023-02-21T12:00:47;19;17;
76679;PMS5003;65597;51.520;-0.224;2023-02-21T12:03:17;12;12;
76679;PMS5003;65597;51.520;-0.224;2023-02-21T12:05:40;15;15;
76679;PMS5003;65597;51.520;-0.224;2023-02-21T12:10:31;17;16;
76679;PMS5003;65597;51.520;-0.224;2023-02-21T12:12:54;19;17;
76679;PMS5003;65597;51.520;-0.224;2023-02-21T12:15:20;19;16;
76679;PMS5003;65597;51.520;-0.224;2023-02-21T12:17:48;13;13;
76679;PMS5003;65597;51.520;-0.224;2023-02-21T12:20:17;19;19;
76679;PMS5003;65597;51.520;-0.224;2023-02-21T12:22:40;19;15;
76679;PMS5003;65597;51.520;-0.224;2023-02-21T12:25:02;20;17;
76679;PMS5003;65597;51.520;-0.224;2023-02-21T12:27:29;17;16;
76679;PMS5003;65597;51.520;-0.224;2023-02-21T12:29:54;18;15;
76679;PMS5003;65597;51.520;-0.224;2023-02-21T12:32:17;13;13;
76679;PMS5003;65597;51.520;-0.224;2023-02-21T12:34:42;22;19;
76679;PMS5003;65597;51.520;-0.224;2023-02-21T12:37:10;14;14;
76679;PMS5003;65597;51.520;-0.224;2023-02-21T12:39:36;18;17;
76679;PMS5003;65597;51.520;-0.224;2023-02-21T12:42:01;13;11;
76679;PMS5003;65597;51.520;-0.224;2023-02-21T12:44:23;15;15;
76679;PMS5003;65597;51.520;-0.224;2023-02-21T12:46:50;13;13;
76679;PMS5003;65597;51.520;-0.224;2023-02-21T12:49:15;14;13;
76679;PMS5003;65597;51.520;-0.224;2023-02-21T12:51:40;24;19;
76679;PMS5003;65597;51.520;-0.224;2023-02-21T12:54:04;17;17;
76679;PMS5003;65597;51.520;-0.224;2023-02-21T12:56:31;17;17;
76679;PMS5003;65597;51.520;-0.224;2023-02-21T12:58:55;16;14;
76679;PMS5003;65597;51.520;-0.224;2023-02-21T13:01:21;14;14;
76679;PMS5003;65597;51.520;-0.224;2023-02-21T13:03:49;12;11;
76679;PMS5003;65597;51.520;-0.224;2023-02-21T13:06:15;16;16;
76679;PMS5003;65597;51.520;-0.224;2023-02-21T13:08:38;14;13;
76679;PMS5003;65597;51.520;-0.224;2023-02-21T13:11:04;16;16;
76679;PMS5003;65597;51.520;-0.224;2023-02-21T13:13:27;17;17;
76679;PMS5003;65597;51.520;-0.224;2023-02-21T13:15:53;20;19;
76679;PMS5003;65597;51.520;-0.224;2023-02-21T13:18:19;19;19;
76679;PMS5003;65597;51.520;-0.224;2023-02-21T13:20:46;17;16;
76679;PMS5003;65597;51.520;-0.224;2023-02-21T13:25:38;15;15;
76679;PMS5003;65597;51.520;-0.224;2023-02-21T13:28:00;18;18;
76679;PMS5003;65597;51.520;-0.224;2023-02-21T13:30:34;21;18;
76679;PMS5003;65597;51.520;-0.224;2023-02-21T13:32:52;22;20;
76679;PMS5003;65597;51.520;-0.224;2023-02-21T13:35:18;16;16;
76679;PMS5003;65597;51.520;-0.224;2023-02-21T13:37:43;22;19;
76679;PMS5003;65597;51.520;-0.224;2023-02-21T13:40:15;14;13;
76679;PMS5003;65597;51.520;-0.224;2023-02-21T13:42:32;15;14;
76679;PMS5003;65597;51.520;-0.224;2023-02-21T13:47:24;14;14;
76679;PMS5003;65597;51.520;-0.224;2023-02-21T13:49:49;17;16;
76679;PMS5003;65597;51.520;-0.224;2023-02-21T13:57:08;17;16;
76679;PMS5003;65597;51.520;-0.224;2023-02-21T13:59:31;24;20;
76679;PMS5003;65597;51.520;-0.224;2023-02-21T14:06:53;22;19;
76679;PMS5003;65597;51.520;-0.224;2023-02-21T14:09:13;14;14;
76679;PMS5003;65597;51.520;-0.224;2023-02-21T14:11:41;20;18;
76679;PMS5003;65597;51.520;-0.224;2023-02-21T14:14:05;19;18;
76679;PMS5003;65597;51.520;-0.224;2023-02-21T14:16:31;20;20;
76679;PMS5003;65597;51.520;-0.224;2023-02-21T14:18:56;22;20;
76679;PMS5003;65597;51.520;-0.224;2023-02-21T14:21:22;20;18;
76679;PMS5003;65597;51.520;-0.224;2023-02-21T14:23:48;20;19;
76679;PMS5003;65597;51.520;-0.224;2023-02-21T14:31:05;25;22;
76679;PMS5003;65597;51.520;-0.224;2023-02-21T14:33:28;24;22;
76679;PMS5003;65597;51.520;-0.224;2023-02-21T14:35:57;23;19;
76679;PMS5003;65597;51.520;-0.224;2023-02-21T14:38:21;22;18;
76679;PMS5003;65597;51.520;-0.224;2023-02-21T14:40:46;19;19;
76679;PMS5003;65597;51.520;-0.224;2023-02-21T14:43:21;19;19;
76679;PMS5003;65597;51.520;-0.224;2023-02-21T14:45:42;17;16;
76679;PMS5003;65597;51.520;-0.224;2023-02-21T14:48:11;18;16;
76679;PMS5003;65597;51.520;-0.224;2023-02-21T14:50:29;22;21;
76679;PMS5003;65597;51.520;-0.224;2023-02-21T14:52:57;22;22;
76679;PMS5003;65597;51.520;-0.224;2023-02-21T14:55:24;20;19;
76679;PMS5003;65597;51.520;-0.224;2023-02-21T14:57:49;22;22;
76679;PMS5003;65597;51.520;-0.224;2023-02-21T15:00:13;23;20;
76679;PMS5003;65597;51.520;-0.224;2023-02-21T15:02:35;27;21;
76679;PMS5003;65597;51.520;-0.224;2023-02-21T15:07:28;19;19;
76679;PMS5003;65597;51.520;-0.224;2023-02-21T15:12:15;21;21;
76679;PMS5003;65597;51.520;-0.224;2023-02-21T15:14:45;21;20;
76679;PMS5003;65597;51.520;-0.224;2023-02-21T15:17:09;24;20;
76679;PMS5003;65597;51.520;-0.224;2023-02-21T15:19:33;26;23;
76679;PMS5003;65597;51.520;-0.224;2023-02-21T15:24:23;28;23;
76679;PMS5003;65597;51.520;-0.224;2023-02-21T15:26:49;18;17;
76679;PMS5003;65597;51.520;-0.224;2023-02-21T15:29:15;20;17;
76679;PMS5003;65597;51.520;-0.224;2023-02-21T15:31:42;25;24;
76679;PMS5003;65597;51.520;-0.224;2023-02-21T15:34:05;30;23;
76679;PMS5003;65597;51.520;-0.224;2023-02-21T15:36:30;28;22;
76679;PMS5003;65597;51.520;-0.224;2023-02-21T15:39:03;25;22;
76679;PMS5003;65597;51.520;-0.224;2023-02-21T15:41:26;24;22;
76679;PMS5003;65597;51.520;-0.224;2023-02-21T15:43:48;26;22;
76679;PMS5003;65597;51.520;-0.224;2023-02-21T15:46:14;23;23;
76679;PMS5003;65597;51.520;-0.224;2023-02-21T15:48:38;30;26;
76679;PMS5003;65597;51.520;-0.224;2023-02-21T15:51:04;28;23;
76679;PMS5003;65597;51.520;-0.224;2023-02-21T15:53:28;30;25;
76679;PMS5003;65597;51.520;-0.224;2023-02-21T15:56:13;25;23;
76679;PMS5003;65597;51.520;-0.224;2023-02-21T15:58:21;21;20;
76679;PMS5003;65597;51.520;-0.224;2023-02-21T16:00:46;25;23;
76679;PMS5003;65597;51.520;-0.224;2023-02-21T16:05:36;24;24;
76679;PMS5003;65597;51.520;-0.224;2023-02-21T16:08:02;27;25;
76679;PMS5003;65597;51.520;-0.224;2023-02-21T16:10:27;29;26;
76679;PMS5003;65597;51.520;-0.224;2023-02-21T16:12:53;27;24;
76679;PMS5003;65597;51.520;-0.224;2023-02-21T16:15:20;31;26;
76679;PMS5003;65597;51.520;-0.224;2023-02-21T16:17:43;25;23;
76679;PMS5003;65597;51.520;-0.224;2023-02-21T16:20:12;24;23;
76679;PMS5003;65597;51.520;-0.224;2023-02-21T16:22:34;27;25;
76679;PMS5003;65597;51.520;-0.224;2023-02-21T16:25:05;32;24;
76679;PMS5003;65597;51.520;-0.224;2023-02-21T16:27:24;25;23;
76679;PMS5003;65597;51.520;-0.224;2023-02-21T16:29:49;30;24;
76679;PMS5003;65597;51.520;-0.224;2023-02-21T16:32:16;32;25;
76679;PMS5003;65597;51.520;-0.224;2023-02-21T16:34:40;30;24;
76679;PMS5003;65597;51.520;-0.224;2023-02-21T16:37:09;27;24;